Terminal Aerodrome Forecast
Issued by NWS

Home | Current Version | Previous Version | Text Only | Print | Product List | Glossary On
Versions: 1 2 3 4 5 6 7 8 9 10 11 12 13 14 15 16 17 18 19 20 21 22 23 24 25 26 27 28 29 30 31 32
000
FTUS44 KMAF 230500
TAFHOB
TAF
KHOB 230529Z 2306/2406 12011KT P6SM FEW006 OVC020
      TEMPO 2306/2310 2SM TSRA BR BKN002CB
     FM231000 17015KT P6SM SHRA FEW006 OVC020
      TEMPO 2310/2314 4SM TSRA OVC012CB
     FM231400 15015KT P6SM BKN050 OVC100
      TEMPO 2314/2318 4SM TSRA OVC020CB
     FM231800 17015KT P6SM -SHRA BKN030 OVC100
      TEMPO 2318/2320 4SM TSRA OVC015CB
     FM232000 15012KT P6SM BKN040=

USA.gov is the U.S. government's official web portal to all federal, state and local government web resources and services.